sensor_id;sensor_type;location;lat;lon;timestamp;pressure;altitude;pressure_sealevel;temperature
61703;BMP280;47622;47.726;3.298;2023-09-19T00:00:31;99045.13;;;17.58
61703;BMP280;47622;47.726;3.298;2023-09-19T00:02:59;99049.56;;;17.54
61703;BMP280;47622;47.726;3.298;2023-09-19T00:05:25;99037.75;;;17.48
61703;BMP280;47622;47.726;3.298;2023-09-19T00:07:54;99041.91;;;17.49
61703;BMP280;47622;47.726;3.298;2023-09-19T00:10:23;99048.06;;;17.53
61703;BMP280;47622;47.726;3.298;2023-09-19T00:12:58;99055.53;;;17.47
61703;BMP280;47622;47.726;3.298;2023-09-19T00:15:27;99053.22;;;17.46
61703;BMP280;47622;47.726;3.298;2023-09-19T00:17:56;99063.91;;;17.49
61703;BMP280;47622;47.726;3.298;2023-09-19T00:20:22;99056.03;;;17.53
61703;BMP280;47622;47.726;3.298;2023-09-19T00:22:51;99048.53;;;17.58
61703;BMP280;47622;47.726;3.298;2023-09-19T00:25:20;99057.25;;;17.59
61703;BMP280;47622;47.726;3.298;2023-09-19T00:27:47;99044.72;;;17.56
61703;BMP280;47622;47.726;3.298;2023-09-19T00:30:17;99047.22;;;17.49
61703;BMP280;47622;47.726;3.298;2023-09-19T00:32:47;99059.38;;;17.50
61703;BMP280;47622;47.726;3.298;2023-09-19T00:35:16;99054.84;;;17.50
61703;BMP280;47622;47.726;3.298;2023-09-19T00:37:42;99045.69;;;17.48
61703;BMP280;47622;47.726;3.298;2023-09-19T00:40:09;99048.63;;;17.43
61703;BMP280;47622;47.726;3.298;2023-09-19T00:42:39;99050.72;;;17.34
61703;BMP280;47622;47.726;3.298;2023-09-19T00:45:07;99066.75;;;17.41
61703;BMP280;47622;47.726;3.298;2023-09-19T00:47:35;99056.16;;;17.41
61703;BMP280;47622;47.726;3.298;2023-09-19T00:50:00;99066.63;;;17.34
61703;BMP280;47622;47.726;3.298;2023-09-19T00:52:30;99070.38;;;17.33
61703;BMP280;47622;47.726;3.298;2023-09-19T00:54:57;99073.31;;;17.28
61703;BMP280;47622;47.726;3.298;2023-09-19T00:57:23;99062.00;;;17.31
61703;BMP280;47622;47.726;3.298;2023-09-19T00:59:50;99069.25;;;17.34
61703;BMP280;47622;47.726;3.298;2023-09-19T01:02:18;99069.63;;;17.32
61703;BMP280;47622;47.726;3.298;2023-09-19T01:04:44;99073.88;;;17.37
61703;BMP280;47622;47.726;3.298;2023-09-19T01:07:10;99074.28;;;17.39
61703;BMP280;47622;47.726;3.298;2023-09-19T01:09:36;99071.91;;;17.34
61703;BMP280;47622;47.726;3.298;2023-09-19T01:12:05;99078.91;;;17.42
61703;BMP280;47622;47.726;3.298;2023-09-19T01:14:44;99080.78;;;17.41
61703;BMP280;47622;47.726;3.298;2023-09-19T01:20:03;99084.91;;;17.39
61703;BMP280;47622;47.726;3.298;2023-09-19T01:28:32;99083.78;;;17.40
61703;BMP280;47622;47.726;3.298;2023-09-19T01:31:04;99080.44;;;17.43
61703;BMP280;47622;47.726;3.298;2023-09-19T01:33:54;99082.38;;;17.46
61703;BMP280;47622;47.726;3.298;2023-09-19T01:36:26;99088.84;;;17.48
61703;BMP280;47622;47.726;3.298;2023-09-19T01:38:53;99081.13;;;17.40
61703;BMP280;47622;47.726;3.298;2023-09-19T01:41:38;99094.81;;;17.42
61703;BMP280;47622;47.726;3.298;2023-09-19T01:44:11;99098.16;;;17.39
61703;BMP280;47622;47.726;3.298;2023-09-19T01:46:41;99095.03;;;17.33
61703;BMP280;47622;47.726;3.298;2023-09-19T01:49:18;99086.97;;;17.30
61703;BMP280;47622;47.726;3.298;2023-09-19T01:51:53;99083.94;;;17.28
61703;BMP280;47622;47.726;3.298;2023-09-19T01:54:27;99089.06;;;17.20
61703;BMP280;47622;47.726;3.298;2023-09-19T01:57:09;99090.59;;;17.21
61703;BMP280;47622;47.726;3.298;2023-09-19T01:59:42;99099.88;;;17.31
61703;BMP280;47622;47.726;3.298;2023-09-19T02:02:09;99100.72;;;17.35
61703;BMP280;47622;47.726;3.298;2023-09-19T02:04:35;99109.88;;;17.38
61703;BMP280;47622;47.726;3.298;2023-09-19T02:07:02;99104.16;;;17.36
61703;BMP280;47622;47.726;3.298;2023-09-19T02:09:29;99110.56;;;17.35
61703;BMP280;47622;47.726;3.298;2023-09-19T02:11:54;99109.44;;;17.36
61703;BMP280;47622;47.726;3.298;2023-09-19T02:14:21;99107.00;;;17.27
61703;BMP280;47622;47.726;3.298;2023-09-19T02:16:47;99113.84;;;17.28
61703;BMP280;47622;47.726;3.298;2023-09-19T02:19:15;99113.50;;;17.30
61703;BMP280;47622;47.726;3.298;2023-09-19T02:21:40;99114.19;;;17.26
61703;BMP280;47622;47.726;3.298;2023-09-19T02:24:06;99110.72;;;17.22
61703;BMP280;47622;47.726;3.298;2023-09-19T02:26:34;99108.88;;;17.26
61703;BMP280;47622;47.726;3.298;2023-09-19T02:29:02;99114.78;;;17.20
61703;BMP280;47622;47.726;3.298;2023-09-19T02:31:30;99112.50;;;17.18
61703;BMP280;47622;47.726;3.298;2023-09-19T02:33:56;99116.78;;;17.23
61703;BMP280;47622;47.726;3.298;2023-09-19T02:36:22;99112.63;;;17.25
61703;BMP280;47622;47.726;3.298;2023-09-19T02:38:49;99100.09;;;17.22
61703;BMP280;47622;47.726;3.298;2023-09-19T02:41:16;99113.13;;;17.31
61703;BMP280;47622;47.726;3.298;2023-09-19T02:43:42;99112.56;;;17.22
61703;BMP280;47622;47.726;3.298;2023-09-19T02:46:08;99113.38;;;17.22
61703;BMP280;47622;47.726;3.298;2023-09-19T02:48:34;99119.84;;;17.09
61703;BMP280;47622;47.726;3.298;2023-09-19T02:51:01;99121.84;;;17.12
61703;BMP280;47622;47.726;3.298;2023-09-19T02:53:28;99114.03;;;17.19
61703;BMP280;47622;47.726;3.298;2023-09-19T02:55:56;99120.09;;;17.20
61703;BMP280;47622;47.726;3.298;2023-09-19T02:58:23;99115.47;;;17.17
61703;BMP280;47622;47.726;3.298;2023-09-19T03:00:50;99119.72;;;17.02
61703;BMP280;47622;47.726;3.298;2023-09-19T03:03:18;99123.03;;;16.99
61703;BMP280;47622;47.726;3.298;2023-09-19T03:05:44;99122.63;;;16.97
61703;BMP280;47622;47.726;3.298;2023-09-19T03:08:13;99119.22;;;16.81
61703;BMP280;47622;47.726;3.298;2023-09-19T03:10:42;99124.31;;;16.74
61703;BMP280;47622;47.726;3.298;2023-09-19T03:13:09;99124.31;;;16.74
61703;BMP280;47622;47.726;3.298;2023-09-19T03:15:41;99118.00;;;16.63
61703;BMP280;47622;47.726;3.298;2023-09-19T03:18:09;99119.47;;;16.60
61703;BMP280;47622;47.726;3.298;2023-09-19T03:20:35;99120.38;;;16.68
61703;BMP280;47622;47.726;3.298;2023-09-19T03:23:01;99119.97;;;16.50
61703;BMP280;47622;47.726;3.298;2023-09-19T03:25:27;99114.16;;;16.44
61703;BMP280;47622;47.726;3.298;2023-09-19T03:27:56;99126.53;;;16.40
61703;BMP280;47622;47.726;3.298;2023-09-19T03:30:23;99120.13;;;16.41
61703;BMP280;47622;47.726;3.298;2023-09-19T03:32:50;99125.66;;;16.36
61703;BMP280;47622;47.726;3.298;2023-09-19T03:35:16;99129.31;;;16.32
61703;BMP280;47622;47.726;3.298;2023-09-19T03:37:43;99129.44;;;16.35
61703;BMP280;47622;47.726;3.298;2023-09-19T03:40:09;99128.06;;;16.41
61703;BMP280;47622;47.726;3.298;2023-09-19T03:42:41;99133.84;;;16.31
61703;BMP280;47622;47.726;3.298;2023-09-19T03:45:07;99131.28;;;16.19
61703;BMP280;47622;47.726;3.298;2023-09-19T03:47:38;99133.50;;;16.17
61703;BMP280;47622;47.726;3.298;2023-09-19T03:50:05;99125.09;;;16.15
61703;BMP280;47622;47.726;3.298;2023-09-19T03:52:32;99130.84;;;16.17
61703;BMP280;47622;47.726;3.298;2023-09-19T03:54:59;99138.34;;;16.15
61703;BMP280;47622;47.726;3.298;2023-09-19T03:57:26;99127.50;;;16.20
61703;BMP280;47622;47.726;3.298;2023-09-19T03:59:52;99130.81;;;16.29
61703;BMP280;47622;47.726;3.298;2023-09-19T04:02:19;99133.97;;;16.35
61703;BMP280;47622;47.726;3.298;2023-09-19T04:04:49;99137.13;;;16.40
61703;BMP280;47622;47.726;3.298;2023-09-19T04:07:17;99131.66;;;16.33
61703;BMP280;47622;47.726;3.298;2023-09-19T04:09:44;99125.50;;;16.29
61703;BMP280;47622;47.726;3.298;2023-09-19T04:12:10;99128.31;;;16.36
61703;BMP280;47622;47.726;3.298;2023-09-19T04:14:37;99126.28;;;16.30
61703;BMP280;47622;47.726;3.298;2023-09-19T04:17:02;99131.72;;;16.37
61703;BMP280;47622;47.726;3.298;2023-09-19T04:19:28;99124.16;;;16.35
61703;BMP280;47622;47.726;3.298;2023-09-19T04:21:54;99131.66;;;16.33
61703;BMP280;47622;47.726;3.298;2023-09-19T04:24:19;99123.25;;;16.31
61703;BMP280;47622;47.726;3.298;2023-09-19T04:26:45;99126.88;;;16.23
61703;BMP280;47622;47.726;3.298;2023-09-19T04:29:11;99126.28;;;16.30
61703;BMP280;47622;47.726;3.298;2023-09-19T04:31:40;99132.59;;;16.41
61703;BMP280;47622;47.726;3.298;2023-09-19T04:34:10;99133.28;;;16.38
61703;BMP280;47622;47.726;3.298;2023-09-19T04:36:35;99126.88;;;16.39
61703;BMP280;47622;47.726;3.298;2023-09-19T04:39:03;99127.31;;;16.41
61703;BMP280;47622;47.726;3.298;2023-09-19T04:41:32;99126.53;;;16.40
61703;BMP280;47622;47.726;3.298;2023-09-19T04:43:59;99125.16;;;16.46
61703;BMP280;47622;47.726;3.298;2023-09-19T04:46:25;99130.44;;;16.46
61703;BMP280;47622;47.726;3.298;2023-09-19T04:48:50;99131.69;;;16.49
61703;BMP280;47622;47.726;3.298;2023-09-19T04:51:15;99126.03;;;16.50
61703;BMP280;47622;47.726;3.298;2023-09-19T04:53:41;99131.34;;;16.50
61703;BMP280;47622;47.726;3.298;2023-09-19T04:56:07;99137.66;;;16.46
61703;BMP280;47622;47.726;3.298;2023-09-19T04:58:33;99135.69;;;16.43
61703;BMP280;47622;47.726;3.298;2023-09-19T05:00:59;99138.00;;;16.44
61703;BMP280;47622;47.726;3.298;2023-09-19T05:03:25;99138.00;;;16.44
61703;BMP280;47622;47.726;3.298;2023-09-19T05:05:50;99137.28;;;16.47
61703;BMP280;47622;47.726;3.298;2023-09-19T05:08:16;99137.41;;;16.51
61703;BMP280;47622;47.726;3.298;2023-09-19T05:10:41;99138.66;;;16.41
61703;BMP280;47622;47.726;3.298;2023-09-19T05:13:07;99143.09;;;16.37
61703;BMP280;47622;47.726;3.298;2023-09-19T05:15:34;99142.31;;;16.37
61703;BMP280;47622;47.726;3.298;2023-09-19T05:18:01;99152.13;;;16.36
61703;BMP280;47622;47.726;3.298;2023-09-19T05:20:26;99146.69;;;16.29
61703;BMP280;47622;47.726;3.298;2023-09-19T05:23:03;99149.75;;;16.03
61703;BMP280;47622;47.726;3.298;2023-09-19T05:25:34;99154.28;;;16.03
61703;BMP280;47622;47.726;3.298;2023-09-19T05:28:05;99153.63;;;16.06
61703;BMP280;47622;47.726;3.298;2023-09-19T05:30:34;99153.81;;;16.13
61703;BMP280;47622;47.726;3.298;2023-09-19T05:33:05;99156.00;;;16.11
61703;BMP280;47622;47.726;3.298;2023-09-19T05:35:31;99155.34;;;16.14
61703;BMP280;47622;47.726;3.298;2023-09-19T05:37:57;99151.31;;;16.20
61703;BMP280;47622;47.726;3.298;2023-09-19T05:40:23;99158.16;;;16.21
61703;BMP280;47622;47.726;3.298;2023-09-19T05:42:49;99164.56;;;16.20
61703;BMP280;47622;47.726;3.298;2023-09-19T05:45:16;99148.69;;;16.20
61703;BMP280;47622;47.726;3.298;2023-09-19T05:47:48;99170.78;;;16.12
61703;BMP280;47622;47.726;3.298;2023-09-19T05:50:14;99163.63;;;16.12
61703;BMP280;47622;47.726;3.298;2023-09-19T05:52:41;99161.84;;;16.16
61703;BMP280;47622;47.726;3.298;2023-09-19T05:55:08;99169.69;;;16.13
61703;BMP280;47622;47.726;3.298;2023-09-19T05:57:34;99158.00;;;16.14
61703;BMP280;47622;47.726;3.298;2023-09-19T06:00:00;99169.09;;;16.19
61703;BMP280;47622;47.726;3.298;2023-09-19T06:02:27;99167.91;;;16.17
61703;BMP280;47622;47.726;3.298;2023-09-19T06:04:55;99168.50;;;16.26
61703;BMP280;47622;47.726;3.298;2023-09-19T06:07:22;99169.97;;;16.23
61703;BMP280;47622;47.726;3.298;2023-09-19T06:09:48;99178.19;;;16.34
61703;BMP280;47622;47.726;3.298;2023-09-19T06:12:14;99176.13;;;16.27
61703;BMP280;47622;47.726;3.298;2023-09-19T06:14:43;99176.91;;;16.28
61703;BMP280;47622;47.726;3.298;2023-09-19T06:17:09;99171.50;;;16.24
61703;BMP280;47622;47.726;3.298;2023-09-19T06:19:35;99176.84;;;16.40
61703;BMP280;47622;47.726;3.298;2023-09-19T06:22:01;99169.72;;;16.28
61703;BMP280;47622;47.726;3.298;2023-09-19T06:24:27;99171.53;;;16.40
61703;BMP280;47622;47.726;3.298;2023-09-19T06:26:53;99180.28;;;16.56
61703;BMP280;47622;47.726;3.298;2023-09-19T06:29:20;99174.63;;;16.74
61703;BMP280;47622;47.726;3.298;2023-09-19T06:31:49;99181.16;;;16.76
61703;BMP280;47622;47.726;3.298;2023-09-19T06:34:14;99182.78;;;16.81
61703;BMP280;47622;47.726;3.298;2023-09-19T06:36:44;99183.28;;;16.71
61703;BMP280;47622;47.726;3.298;2023-09-19T06:39:11;99189.19;;;16.80
61703;BMP280;47622;47.726;3.298;2023-09-19T06:41:38;99195.06;;;16.89
61703;BMP280;47622;47.726;3.298;2023-09-19T06:44:04;99192.16;;;16.94
61703;BMP280;47622;47.726;3.298;2023-09-19T06:46:31;99194.91;;;17.13
61703;BMP280;47622;47.726;3.298;2023-09-19T06:49:01;99202.63;;;17.18
61703;BMP280;47622;47.726;3.298;2023-09-19T06:51:28;99197.03;;;17.23
61703;BMP280;47622;47.726;3.298;2023-09-19T06:53:55;99197.94;;;17.47
61703;BMP280;47622;47.726;3.298;2023-09-19T06:56:22;99195.34;;;17.66
61703;BMP280;47622;47.726;3.298;2023-09-19T06:58:50;99201.03;;;17.49
61703;BMP280;47622;47.726;3.298;2023-09-19T07:01:15;99200.88;;;17.77
61703;BMP280;47622;47.726;3.298;2023-09-19T07:03:41;99193.25;;;17.75
61703;BMP280;47622;47.726;3.298;2023-09-19T07:06:06;99196.66;;;17.56
61703;BMP280;47622;47.726;3.298;2023-09-19T07:08:35;99192.78;;;17.54
61703;BMP280;47622;47.726;3.298;2023-09-19T07:11:01;99196.72;;;17.60
61703;BMP280;47622;47.726;3.298;2023-09-19T07:13:26;99206.28;;;17.84
61703;BMP280;47622;47.726;3.298;2023-09-19T07:15:53;99215.66;;;18.16
61703;BMP280;47622;47.726;3.298;2023-09-19T07:18:19;99216.69;;;18.12
61703;BMP280;47622;47.726;3.298;2023-09-19T07:20:45;99213.19;;;18.27
61703;BMP280;47622;47.726;3.298;2023-09-19T07:23:23;99225.06;;;18.52
61703;BMP280;47622;47.726;3.298;2023-09-19T07:25:49;99223.16;;;18.72
61703;BMP280;47622;47.726;3.298;2023-09-19T07:28:15;99231.75;;;18.88
61703;BMP280;47622;47.726;3.298;2023-09-19T07:30:41;99233.22;;;18.86
61703;BMP280;47622;47.726;3.298;2023-09-19T07:33:07;99238.72;;;19.23
61703;BMP280;47622;47.726;3.298;2023-09-19T07:35:34;99226.50;;;19.45
61703;BMP280;47622;47.726;3.298;2023-09-19T07:38:01;99232.31;;;19.01
61703;BMP280;47622;47.726;3.298;2023-09-19T07:40:27;99234.97;;;19.01
61703;BMP280;47622;47.726;3.298;2023-09-19T07:42:57;99228.97;;;19.04
61703;BMP280;47622;47.726;3.298;2023-09-19T07:45:27;99235.38;;;19.26
61703;BMP280;47622;47.726;3.298;2023-09-19T07:47:55;99241.28;;;19.42
61703;BMP280;47622;47.726;3.298;2023-09-19T07:50:21;99239.75;;;19.68
61703;BMP280;47622;47.726;3.298;2023-09-19T07:52:48;99241.22;;;19.65
61703;BMP280;47622;47.726;3.298;2023-09-19T07:55:16;99243.56;;;19.70
61703;BMP280;47622;47.726;3.298;2023-09-19T07:57:46;99253.50;;;19.73
61703;BMP280;47622;47.726;3.298;2023-09-19T08:00:12;99254.50;;;19.35
61703;BMP280;47622;47.726;3.298;2023-09-19T08:02:41;99261.28;;;19.33
61703;BMP280;47622;47.726;3.298;2023-09-19T08:05:08;99258.94;;;19.27
61703;BMP280;47622;47.726;3.298;2023-09-19T08:07:40;99251.28;;;19.22
61703;BMP280;47622;47.726;3.298;2023-09-19T08:10:07;99248.69;;;19.26
61703;BMP280;47622;47.726;3.298;2023-09-19T08:12:34;99247.84;;;19.22
61703;BMP280;47622;47.726;3.298;2023-09-19T08:15:02;99246.88;;;18.84
61703;BMP280;47622;47.726;3.298;2023-09-19T08:17:28;99250.72;;;18.87
61703;BMP280;47622;47.726;3.298;2023-09-19T08:19:53;99253.19;;;18.99
61703;BMP280;47622;47.726;3.298;2023-09-19T08:22:22;99249.50;;;19.07
61703;BMP280;47622;47.726;3.298;2023-09-19T08:24:49;99253.81;;;19.15
61703;BMP280;47622;47.726;3.298;2023-09-19T08:27:14;99258.94;;;19.27
61703;BMP280;47622;47.726;3.298;2023-09-19T08:29:40;99268.59;;;19.39
61703;BMP280;47622;47.726;3.298;2023-09-19T08:32:07;99270.78;;;19.56
61703;BMP280;47622;47.726;3.298;2023-09-19T08:34:33;99275.22;;;19.49
61703;BMP280;47622;47.726;3.298;2023-09-19T08:36:59;99278.47;;;19.65
61703;BMP280;47622;47.726;3.298;2023-09-19T08:39:25;99282.31;;;19.68
61703;BMP280;47622;47.726;3.298;2023-09-19T08:41:58;99279.91;;;19.59
61703;BMP280;47622;47.726;3.298;2023-09-19T08:44:28;99264.09;;;19.70
61703;BMP280;47622;47.726;3.298;2023-09-19T08:47:01;99266.09;;;19.76
61703;BMP280;47622;47.726;3.298;2023-09-19T08:52:22;99283.19;;;19.75
61703;BMP280;47622;47.726;3.298;2023-09-19T08:54:57;99283.06;;;19.94
61703;BMP280;47622;47.726;3.298;2023-09-19T08:57:24;99275.22;;;20.05
61703;BMP280;47622;47.726;3.298;2023-09-19T08:59:55;99277.16;;;19.82
61703;BMP280;47622;47.726;3.298;2023-09-19T09:02:22;99277.16;;;19.78
61703;BMP280;47622;47.726;3.298;2023-09-19T09:04:50;99265.69;;;19.74
61703;BMP280;47622;47.726;3.298;2023-09-19T09:07:16;99265.94;;;19.95
61703;BMP280;47622;47.726;3.298;2023-09-19T09:09:44;99263.16;;;19.85
61703;BMP280;47622;47.726;3.298;2023-09-19T09:12:14;99278.88;;;19.93
61703;BMP280;47622;47.726;3.298;2023-09-19T09:14:44;99289.28;;;19.76
61703;BMP280;47622;47.726;3.298;2023-09-19T09:17:10;99286.47;;;19.65
61703;BMP280;47622;47.726;3.298;2023-09-19T09:19:36;99276.13;;;19.60
61703;BMP280;47622;47.726;3.298;2023-09-19T09:22:10;99283.19;;;19.75
61703;BMP280;47622;47.726;3.298;2023-09-19T09:24:37;99285.44;;;19.73
61703;BMP280;47622;47.726;3.298;2023-09-19T09:27:06;99275.97;;;20.06
61703;BMP280;47622;47.726;3.298;2023-09-19T09:29:49;99270.31;;;20.44
61703;BMP280;47622;47.726;3.298;2023-09-19T09:34:57;99279.06;;;22.48
61703;BMP280;47622;47.726;3.298;2023-09-19T09:37:23;99275.25;;;22.70
61703;BMP280;47622;47.726;3.298;2023-09-19T09:39:55;99277.38;;;23.61
61703;BMP280;47622;47.726;3.298;2023-09-19T09:42:37;99284.81;;;24.08
61703;BMP280;47622;47.726;3.298;2023-09-19T09:45:21;99272.69;;;23.86
61703;BMP280;47622;47.726;3.298;2023-09-19T09:48:03;99268.28;;;23.26
61703;BMP280;47622;47.726;3.298;2023-09-19T09:50:36;99276.78;;;22.61
61703;BMP280;47622;47.726;3.298;2023-09-19T09:53:20;99283.28;;;22.42
61703;BMP280;47622;47.726;3.298;2023-09-19T09:56:05;99277.81;;;21.96
61703;BMP280;47622;47.726;3.298;2023-09-19T09:58:38;99262.59;;;21.27
61703;BMP280;47622;47.726;3.298;2023-09-19T10:01:14;99258.06;;;21.31
61703;BMP280;47622;47.726;3.298;2023-09-19T10:03:42;99267.00;;;21.02
61703;BMP280;47622;47.726;3.298;2023-09-19T10:06:16;99265.19;;;20.66
61703;BMP280;47622;47.726;3.298;2023-09-19T10:09:04;99252.78;;;20.43
61703;BMP280;47622;47.726;3.298;2023-09-19T10:11:48;99251.09;;;20.28
61703;BMP280;47622;47.726;3.298;2023-09-19T10:14:30;99246.50;;;20.25
61703;BMP280;47622;47.726;3.298;2023-09-19T10:16:58;99251.41;;;19.89
61703;BMP280;47622;47.726;3.298;2023-09-19T10:19:44;99251.03;;;20.21
61703;BMP280;47622;47.726;3.298;2023-09-19T10:22:14;99257.84;;;20.18
61703;BMP280;47622;47.726;3.298;2023-09-19T10:24:47;99252.72;;;20.36
61703;BMP280;47622;47.726;3.298;2023-09-19T10:27:12;99242.16;;;20.47
61703;BMP280;47622;47.726;3.298;2023-09-19T10:29:45;99242.47;;;20.82
61703;BMP280;47622;47.726;3.298;2023-09-19T10:32:16;99241.78;;;20.96
61703;BMP280;47622;47.726;3.298;2023-09-19T10:34:47;99229.75;;;21.16
61703;BMP280;47622;47.726;3.298;2023-09-19T10:37:16;99231.25;;;22.00
61703;BMP280;47622;47.726;3.298;2023-09-19T10:39:46;99239.69;;;23.16
61703;BMP280;47622;47.726;3.298;2023-09-19T10:42:19;99229.94;;;23.58
61703;BMP280;47622;47.726;3.298;2023-09-19T10:44:47;99241.84;;;23.50
61703;BMP280;47622;47.726;3.298;2023-09-19T10:47:19;99239.19;;;23.50
61703;BMP280;47622;47.726;3.298;2023-09-19T10:49:46;99230.72;;;23.62
61703;BMP280;47622;47.726;3.298;2023-09-19T10:52:14;99242.06;;;23.83
61703;BMP280;47622;47.726;3.298;2023-09-19T10:54:48;99238.38;;;23.60
61703;BMP280;47622;47.726;3.298;2023-09-19T10:57:23;99231.78;;;23.75
61703;BMP280;47622;47.726;3.298;2023-09-19T11:00:08;99233.09;;;23.31
61703;BMP280;47622;47.726;3.298;2023-09-19T11:05:42;99229.75;;;23.06
61703;BMP280;47622;47.726;3.298;2023-09-19T11:08:09;99231.69;;;22.98
61703;BMP280;47622;47.726;3.298;2023-09-19T11:10:50;99228.41;;;23.64
61703;BMP280;47622;47.726;3.298;2023-09-19T11:13:31;99227.56;;;23.81
61703;BMP280;47622;47.726;3.298;2023-09-19T11:16:03;99233.66;;;23.78
61703;BMP280;47622;47.726;3.298;2023-09-19T11:26:45;99215.09;;;24.98
61703;BMP280;47622;47.726;3.298;2023-09-19T11:29:30;99209.97;;;24.35
61703;BMP280;47622;47.726;3.298;2023-09-19T11:31:59;99226.81;;;23.77
61703;BMP280;47622;47.726;3.298;2023-09-19T11:34:39;99206.38;;;23.24
61703;BMP280;47622;47.726;3.298;2023-09-19T11:40:05;99217.19;;;22.96
61703;BMP280;47622;47.726;3.298;2023-09-19T11:42:42;99206.13;;;22.30
61703;BMP280;47622;47.726;3.298;2023-09-19T11:48:06;99196.44;;;21.65
61703;BMP280;47622;47.726;3.298;2023-09-19T11:50:32;99196.50;;;21.93
61703;BMP280;47622;47.726;3.298;2023-09-19T11:52:59;99193.91;;;22.57
61703;BMP280;47622;47.726;3.298;2023-09-19T11:55:25;99198.72;;;23.19
61703;BMP280;47622;47.726;3.298;2023-09-19T11:57:56;99204.19;;;22.77
61703;BMP280;47622;47.726;3.298;2023-09-19T12:00:23;99198.47;;;22.32
61703;BMP280;47622;47.726;3.298;2023-09-19T12:02:50;99196.97;;;22.38
61703;BMP280;47622;47.726;3.298;2023-09-19T12:05:30;99201.47;;;22.98
61703;BMP280;47622;47.726;3.298;2023-09-19T12:07:58;99200.16;;;23.48
61703;BMP280;47622;47.726;3.298;2023-09-19T12:10:25;99191.91;;;23.11
61703;BMP280;47622;47.726;3.298;2023-09-19T12:12:52;99187.31;;;23.08
61703;BMP280;47622;47.726;3.298;2023-09-19T12:15:25;99191.91;;;23.04
61703;BMP280;47622;47.726;3.298;2023-09-19T12:18:00;99199.44;;;23.34
61703;BMP280;47622;47.726;3.298;2023-09-19T12:20:42;99189.31;;;24.29
61703;BMP280;47622;47.726;3.298;2023-09-19T12:23:13;99177.59;;;24.53
61703;BMP280;47622;47.726;3.298;2023-09-19T12:25:43;99190.13;;;23.63
61703;BMP280;47622;47.726;3.298;2023-09-19T12:28:16;99188.00;;;23.26
61703;BMP280;47622;47.726;3.298;2023-09-19T12:30:47;99180.41;;;23.10
61703;BMP280;47622;47.726;3.298;2023-09-19T12:33:19;99179.69;;;23.03
61703;BMP280;47622;47.726;3.298;2023-09-19T12:35:46;99168.28;;;22.74
61703;BMP280;47622;47.726;3.298;2023-09-19T12:38:24;99165.16;;;22.97
61703;BMP280;47622;47.726;3.298;2023-09-19T12:40:51;99175.69;;;23.46
61703;BMP280;47622;47.726;3.298;2023-09-19T12:43:18;99167.09;;;23.80
61703;BMP280;47622;47.726;3.298;2023-09-19T12:45:45;99167.50;;;23.71
61703;BMP280;47622;47.726;3.298;2023-09-19T12:48:26;99156.47;;;24.17
61703;BMP280;47622;47.726;3.298;2023-09-19T12:51:05;99164.50;;;24.17
61703;BMP280;47622;47.726;3.298;2023-09-19T12:53:33;99145.84;;;24.07
61703;BMP280;47622;47.726;3.298;2023-09-19T12:56:01;99148.88;;;24.12
61703;BMP280;47622;47.726;3.298;2023-09-19T12:58:28;99141.41;;;24.31
61703;BMP280;47622;47.726;3.298;2023-09-19T13:00:55;99136.91;;;24.62
61703;BMP280;47622;47.726;3.298;2023-09-19T13:06:00;99141.75;;;25.08
61703;BMP280;47622;47.726;3.298;2023-09-19T13:08:34;99134.91;;;24.69
61703;BMP280;47622;47.726;3.298;2023-09-19T13:13:36;99137.09;;;24.44
61703;BMP280;47622;47.726;3.298;2023-09-19T13:16:03;99135.94;;;24.45
61703;BMP280;47622;47.726;3.298;2023-09-19T13:18:45;99134.66;;;24.15
61703;BMP280;47622;47.726;3.298;2023-09-19T13:21:16;99137.66;;;23.76
61703;BMP280;47622;47.726;3.298;2023-09-19T13:23:54;99142.09;;;23.31
61703;BMP280;47622;47.726;3.298;2023-09-19T13:26:25;99133.66;;;23.43
61703;BMP280;47622;47.726;3.298;2023-09-19T13:28:51;99139.13;;;23.08
61703;BMP280;47622;47.726;3.298;2023-09-19T13:31:17;99129.09;;;23.26
61703;BMP280;47622;47.726;3.298;2023-09-19T13:33:48;99126.38;;;23.44
61703;BMP280;47622;47.726;3.298;2023-09-19T13:36:14;99110.03;;;23.24
61703;BMP280;47622;47.726;3.298;2023-09-19T13:38:44;99128.84;;;23.76
61703;BMP280;47622;47.726;3.298;2023-09-19T13:41:10;99117.97;;;23.38
61703;BMP280;47622;47.726;3.298;2023-09-19T13:43:37;99124.31;;;23.66
61703;BMP280;47622;47.726;3.298;2023-09-19T13:46:05;99117.72;;;24.26
61703;BMP280;47622;47.726;3.298;2023-09-19T13:48:33;99104.81;;;24.17
61703;BMP280;47622;47.726;3.298;2023-09-19T13:51:02;99108.88;;;24.29
61703;BMP280;47622;47.726;3.298;2023-09-19T13:53:27;99101.16;;;23.93
61703;BMP280;47622;47.726;3.298;2023-09-19T13:55:53;99108.00;;;24.01
61703;BMP280;47622;47.726;3.298;2023-09-19T13:58:18;99102.44;;;24.23
61703;BMP280;47622;47.726;3.298;2023-09-19T14:00:44;99101.34;;;24.54
61703;BMP280;47622;47.726;3.298;2023-09-19T14:03:09;99093.06;;;24.38
61703;BMP280;47622;47.726;3.298;2023-09-19T14:05:36;99101.13;;;24.38
61703;BMP280;47622;47.726;3.298;2023-09-19T14:08:03;99090.22;;;24.18
61703;BMP280;47622;47.726;3.298;2023-09-19T14:10:29;99092.56;;;24.12
61703;BMP280;47622;47.726;3.298;2023-09-19T14:12:58;99086.53;;;24.01
61703;BMP280;47622;47.726;3.298;2023-09-19T14:15:25;99090.44;;;23.93
61703;BMP280;47622;47.726;3.298;2023-09-19T14:17:58;99073.75;;;23.75
61703;BMP280;47622;47.726;3.298;2023-09-19T14:20:24;99082.47;;;23.86
61703;BMP280;47622;47.726;3.298;2023-09-19T14:22:52;99080.44;;;23.97
61703;BMP280;47622;47.726;3.298;2023-09-19T14:25:18;99091.50;;;24.44
61703;BMP280;47622;47.726;3.298;2023-09-19T14:27:44;99069.72;;;23.97
61703;BMP280;47622;47.726;3.298;2023-09-19T14:30:10;99067.72;;;23.60
61703;BMP280;47622;47.726;3.298;2023-09-19T14:32:36;99063.06;;;23.68
61703;BMP280;47622;47.726;3.298;2023-09-19T14:35:02;99052.34;;;23.68
61703;BMP280;47622;47.726;3.298;2023-09-19T14:37:28;99043.53;;;23.71
61703;BMP280;47622;47.726;3.298;2023-09-19T14:39:53;99049.22;;;23.80
61703;BMP280;47622;47.726;3.298;2023-09-19T14:42:19;99048.59;;;23.62
61703;BMP280;47622;47.726;3.298;2023-09-19T14:44:45;99056.25;;;23.60
61703;BMP280;47622;47.726;3.298;2023-09-19T14:47:12;99058.13;;;23.70
61703;BMP280;47622;47.726;3.298;2023-09-19T14:49:39;99067.56;;;23.78
61703;BMP280;47622;47.726;3.298;2023-09-19T14:52:09;99068.56;;;23.54
61703;BMP280;47622;47.726;3.298;2023-09-19T14:54:35;99063.22;;;23.46